Terminal Aerodrome Forecast
Issued by NWS Billings, MT

Home | Current Version | Previous Version | Graphics & Text | Print | Product List | Glossary On
Versions: 1 2 3 4 5 6 7 8 9 10 11 12 13 14 15 16 17 18 19 20 21 22 23
674
FTUS45 KBYZ 191727
TAFMLS
TAF
KMLS 191727Z 1918/2018 13015G22KT P6SM BKN120
     FM192300 09014G23KT P6SM SCT020 SCT100
     FM200200 08011KT P6SM BKN150 WS015/11030KT
     FM200900 09011G19KT P6SM SCT020 SCT070=

USA.gov is the U.S. government's official web portal to all federal, state and local government web resources and services.